Bakersville, Connecticut
Current Conditions -  °F | °C
As of 1:51 AM on Monday 22 Dec 2014 (Local Time) from KBDL Reporting Station
Overcast Overcast  
Wind Chill: 30°   Ceiling: 2300
Heat Index: 34°   Visibility: 10mi
Dew Point: 30°   Wind: 5mph
Humidity: 85%   Direction: 360°N
Pressure: 30.34"   Gusts: NA
Location:  41.8531°N, 73.0043°W
Report Text: KBDL 220651Z 36004KT 10SM BKN023 OVC028 01/M01 A3034 RMK AO2 SLP276 T00111011 $
Loading
Personal Weather Stations






























Interactive Weather Map New forecast layout! Learn more

10-Day Weather Forecast

Advertisements
Track Severe Weather on mobile